sensor_id;sensor_type;location;lat;lon;timestamp;pressure;altitude;pressure_sealevel;temperature;humidity
74524;BME280;63074;44.696;10.358;2023-05-01T00:01:11;99852.66;;;15.14;100.00
74524;BME280;63074;44.696;10.358;2023-05-01T00:03:37;99844.28;;;15.16;100.00
74524;BME280;63074;44.696;10.358;2023-05-01T00:06:03;99849.69;;;15.21;100.00
74524;BME280;63074;44.696;10.358;2023-05-01T00:08:31;99847.53;;;15.13;100.00
74524;BME280;63074;44.696;10.358;2023-05-01T00:11:01;99847.25;;;15.14;100.00
74524;BME280;63074;44.696;10.358;2023-05-01T00:13:27;99848.88;;;15.15;100.00
74524;BME280;63074;44.696;10.358;2023-05-01T00:15:54;99849.94;;;14.84;100.00
74524;BME280;63074;44.696;10.358;2023-05-01T00:18:20;99837.50;;;14.93;100.00
74524;BME280;63074;44.696;10.358;2023-05-01T00:20:47;99842.56;;;14.59;100.00
74524;BME280;63074;44.696;10.358;2023-05-01T00:23:13;99851.00;;;14.83;100.00
74524;BME280;63074;44.696;10.358;2023-05-01T00:25:40;99842.09;;;14.93;100.00
74524;BME280;63074;44.696;10.358;2023-05-01T00:28:06;99850.47;;;14.71;100.00
74524;BME280;63074;44.696;10.358;2023-05-01T00:30:32;99843.91;;;14.51;100.00
74524;BME280;63074;44.696;10.358;2023-05-01T00:32:59;99837.75;;;14.66;100.00
74524;BME280;63074;44.696;10.358;2023-05-01T00:35:26;99841.53;;;14.80;100.00
74524;BME280;63074;44.696;10.358;2023-05-01T00:37:53;99842.63;;;14.79;100.00
74524;BME280;63074;44.696;10.358;2023-05-01T00:40:19;99843.72;;;14.94;100.00
74524;BME280;63074;44.696;10.358;2023-05-01T00:42:45;99839.94;;;14.95;100.00
74524;BME280;63074;44.696;10.358;2023-05-01T00:45:12;99835.09;;;14.97;100.00
74524;BME280;63074;44.696;10.358;2023-05-01T00:47:39;99844.00;;;14.87;100.00
74524;BME280;63074;44.696;10.358;2023-05-01T00:50:06;99836.69;;;14.93;100.00
74524;BME280;63074;44.696;10.358;2023-05-01T00:52:33;99840.47;;;14.92;100.00
74524;BME280;63074;44.696;10.358;2023-05-01T00:54:59;99829.94;;;14.95;100.00
74524;BME280;63074;44.696;10.358;2023-05-01T00:57:25;99836.66;;;14.77;100.00
74524;BME280;63074;44.696;10.358;2023-05-01T00:59:52;99834.28;;;14.96;100.00
74524;BME280;63074;44.696;10.358;2023-05-01T01:02:18;99836.16;;;14.96;100.00
74524;BME280;63074;44.696;10.358;2023-05-01T01:04:46;99834.28;;;15.01;100.00
74524;BME280;63074;44.696;10.358;2023-05-01T01:07:26;99831.53;;;14.86;100.00
74524;BME280;63074;44.696;10.358;2023-05-01T01:13:00;99833.41;;;14.80;100.00
74524;BME280;63074;44.696;10.358;2023-05-01T01:15:52;99826.66;;;14.68;100.00
74524;BME280;63074;44.696;10.358;2023-05-01T01:18:23;99818.25;;;14.74;100.00
74524;BME280;63074;44.696;10.358;2023-05-01T01:21:38;99831.25;;;14.72;100.00
74524;BME280;63074;44.696;10.358;2023-05-01T01:24:11;99827.72;;;14.77;100.00
74524;BME280;63074;44.696;10.358;2023-05-01T01:32:55;99823.41;;;14.81;100.00
74524;BME280;63074;44.696;10.358;2023-05-01T01:35:27;99818.50;;;14.58;100.00
74524;BME280;63074;44.696;10.358;2023-05-01T01:38:16;99821.78;;;14.75;100.00
74524;BME280;63074;44.696;10.358;2023-05-01T01:41:19;99819.06;;;14.75;100.00
74524;BME280;63074;44.696;10.358;2023-05-01T01:43:59;99819.09;;;14.70;100.00
74524;BME280;63074;44.696;10.358;2023-05-01T01:46:26;99818.13;;;14.29;100.00
74524;BME280;63074;44.696;10.358;2023-05-01T01:48:55;99821.75;;;14.60;100.00
74524;BME280;63074;44.696;10.358;2023-05-01T01:51:24;99816.91;;;14.67;100.00
74524;BME280;63074;44.696;10.358;2023-05-01T01:53:53;99825.84;;;14.67;100.00
74524;BME280;63074;44.696;10.358;2023-05-01T01:56:22;99821.78;;;14.65;100.00
74524;BME280;63074;44.696;10.358;2023-05-01T01:58:53;99817.41;;;14.53;100.00
74524;BME280;63074;44.696;10.358;2023-05-01T02:01:21;99820.69;;;14.66;100.00
74524;BME280;63074;44.696;10.358;2023-05-01T02:03:49;99815.81;;;14.58;100.00
74524;BME280;63074;44.696;10.358;2023-05-01T02:06:17;99812.56;;;14.56;100.00
74524;BME280;63074;44.696;10.358;2023-05-01T02:08:46;99806.59;;;14.48;100.00
74524;BME280;63074;44.696;10.358;2023-05-01T02:11:16;99814.41;;;14.45;100.00
74524;BME280;63074;44.696;10.358;2023-05-01T02:13:44;99812.81;;;14.49;100.00
74524;BME280;63074;44.696;10.358;2023-05-01T02:16:11;99811.19;;;14.53;100.00
74524;BME280;63074;44.696;10.358;2023-05-01T02:18:38;99805.78;;;14.53;100.00
74524;BME280;63074;44.696;10.358;2023-05-01T02:21:05;99806.59;;;14.53;100.00
74524;BME280;63074;44.696;10.358;2023-05-01T02:23:31;99795.81;;;14.59;100.00
74524;BME280;63074;44.696;10.358;2023-05-01T02:26:00;99795.22;;;14.46;100.00
74524;BME280;63074;44.696;10.358;2023-05-01T02:28:29;99804.97;;;14.52;100.00
74524;BME280;63074;44.696;10.358;2023-05-01T02:30:57;99791.44;;;14.47;100.00
74524;BME280;63074;44.696;10.358;2023-05-01T02:33:23;99791.19;;;14.54;100.00
74524;BME280;63074;44.696;10.358;2023-05-01T02:35:50;99790.88;;;14.40;100.00
74524;BME280;63074;44.696;10.358;2023-05-01T02:38:17;99790.31;;;14.38;100.00
74524;BME280;63074;44.696;10.358;2023-05-01T02:40:50;99787.09;;;14.46;100.00
74524;BME280;63074;44.696;10.358;2023-05-01T02:43:19;99785.97;;;14.27;100.00
74524;BME280;63074;44.696;10.358;2023-05-01T02:45:47;99788.16;;;14.40;100.00
74524;BME280;63074;44.696;10.358;2023-05-01T02:48:17;99781.88;;;14.25;100.00
74524;BME280;63074;44.696;10.358;2023-05-01T02:50:45;99784.91;;;14.33;100.00
74524;BME280;63074;44.696;10.358;2023-05-01T02:53:13;99772.75;;;14.36;100.00
74524;BME280;63074;44.696;10.358;2023-05-01T02:55:41;99780.63;;;14.47;100.00
74524;BME280;63074;44.696;10.358;2023-05-01T02:58:17;99774.28;;;14.16;100.00
74524;BME280;63074;44.696;10.358;2023-05-01T03:00:44;99781.94;;;14.35;100.00
74524;BME280;63074;44.696;10.358;2023-05-01T03:03:10;99779.00;;;14.46;100.00
74524;BME280;63074;44.696;10.358;2023-05-01T03:05:37;99772.78;;;14.41;100.00
74524;BME280;63074;44.696;10.358;2023-05-01T03:08:04;99775.50;;;14.41;100.00
74524;BME280;63074;44.696;10.358;2023-05-01T03:10:31;99777.91;;;14.47;100.00
74524;BME280;63074;44.696;10.358;2023-05-01T03:12:57;99771.97;;;14.50;100.00
74524;BME280;63074;44.696;10.358;2023-05-01T03:15:23;99773.63;;;14.62;100.00
74524;BME280;63074;44.696;10.358;2023-05-01T03:17:50;99777.16;;;14.62;100.00
74524;BME280;63074;44.696;10.358;2023-05-01T03:20:16;99777.50;;;14.03;100.00
74524;BME280;63074;44.696;10.358;2023-05-01T03:22:42;99778.41;;;14.29;100.00
74524;BME280;63074;44.696;10.358;2023-05-01T03:25:09;99768.50;;;13.77;100.00
74524;BME280;63074;44.696;10.358;2023-05-01T03:27:35;99776.03;;;12.96;100.00
74524;BME280;63074;44.696;10.358;2023-05-01T03:30:01;99787.53;;;12.87;100.00
74524;BME280;63074;44.696;10.358;2023-05-01T03:32:29;99788.03;;;13.47;100.00
74524;BME280;63074;44.696;10.358;2023-05-01T03:34:55;99782.44;;;13.64;100.00
74524;BME280;63074;44.696;10.358;2023-05-01T03:37:21;99784.56;;;13.57;100.00
74524;BME280;63074;44.696;10.358;2023-05-01T03:39:47;99777.28;;;13.58;100.00
74524;BME280;63074;44.696;10.358;2023-05-01T03:42:14;99786.16;;;13.48;100.00
74524;BME280;63074;44.696;10.358;2023-05-01T03:44:40;99780.78;;;13.58;100.00
74524;BME280;63074;44.696;10.358;2023-05-01T03:47:07;99786.25;;;13.68;100.00
74524;BME280;63074;44.696;10.358;2023-05-01T03:49:33;99781.59;;;13.54;100.00
74524;BME280;63074;44.696;10.358;2023-05-01T03:51:59;99791.69;;;13.73;100.00
74524;BME280;63074;44.696;10.358;2023-05-01T03:54:25;99784.69;;;13.77;100.00
74524;BME280;63074;44.696;10.358;2023-05-01T03:56:52;99780.38;;;13.86;100.00
74524;BME280;63074;44.696;10.358;2023-05-01T03:59:18;99780.69;;;13.90;100.00
74524;BME280;63074;44.696;10.358;2023-05-01T04:01:44;99788.94;;;13.68;100.00
74524;BME280;63074;44.696;10.358;2023-05-01T04:04:10;99783.88;;;13.77;100.00
74524;BME280;63074;44.696;10.358;2023-05-01T04:06:36;99783.38;;;13.85;100.00
74524;BME280;63074;44.696;10.358;2023-05-01T04:09:03;99786.25;;;13.68;100.00
74524;BME280;63074;44.696;10.358;2023-05-01T04:11:29;99782.25;;;13.76;100.00
74524;BME280;63074;44.696;10.358;2023-05-01T04:13:56;99793.06;;;13.76;100.00
74524;BME280;63074;44.696;10.358;2023-05-01T04:16:22;99783.91;;;13.82;100.00
74524;BME280;63074;44.696;10.358;2023-05-01T04:18:48;99785.28;;;13.84;100.00
74524;BME280;63074;44.696;10.358;2023-05-01T04:21:15;99790.94;;;13.83;100.00
74524;BME280;63074;44.696;10.358;2023-05-01T04:23:43;99788.72;;;13.75;100.00
74524;BME280;63074;44.696;10.358;2023-05-01T04:26:09;99794.72;;;13.82;100.00
74524;BME280;63074;44.696;10.358;2023-05-01T04:28:35;99789.59;;;13.85;100.00
74524;BME280;63074;44.696;10.358;2023-05-01T04:31:02;99800.91;;;13.77;100.00
74524;BME280;63074;44.696;10.358;2023-05-01T04:33:28;99798.22;;;13.88;100.00
74524;BME280;63074;44.696;10.358;2023-05-01T04:35:55;99798.78;;;13.90;100.00
74524;BME280;63074;44.696;10.358;2023-05-01T04:38:21;99800.66;;;13.89;100.00
74524;BME280;63074;44.696;10.358;2023-05-01T04:40:47;99805.00;;;13.95;100.00
74524;BME280;63074;44.696;10.358;2023-05-01T04:43:13;99808.78;;;13.94;100.00
74524;BME280;63074;44.696;10.358;2023-05-01T04:45:39;99802.88;;;13.97;100.00
74524;BME280;63074;44.696;10.358;2023-05-01T04:48:06;99799.66;;;14.00;100.00
74524;BME280;63074;44.696;10.358;2023-05-01T04:50:32;99807.50;;;14.07;100.00
74524;BME280;63074;44.696;10.358;2023-05-01T04:52:58;99818.00;;;13.98;100.00
74524;BME280;63074;44.696;10.358;2023-05-01T04:55:24;99811.06;;;14.12;100.00
74524;BME280;63074;44.696;10.358;2023-05-01T04:57:51;99813.75;;;14.12;100.00
74524;BME280;63074;44.696;10.358;2023-05-01T05:00:17;99812.09;;;14.06;100.00
74524;BME280;63074;44.696;10.358;2023-05-01T05:02:45;99811.25;;;14.01;100.00
74524;BME280;63074;44.696;10.358;2023-05-01T05:05:11;99819.41;;;14.11;100.00
74524;BME280;63074;44.696;10.358;2023-05-01T05:07:37;99818.09;;;14.13;100.00
74524;BME280;63074;44.696;10.358;2023-05-01T05:10:04;99821.59;;;14.14;100.00
74524;BME280;63074;44.696;10.358;2023-05-01T05:12:30;99824.56;;;14.17;100.00
74524;BME280;63074;44.696;10.358;2023-05-01T05:14:56;99826.72;;;14.15;100.00
74524;BME280;63074;44.696;10.358;2023-05-01T05:17:23;99827.56;;;14.21;100.00
74524;BME280;63074;44.696;10.358;2023-05-01T05:19:49;99830.25;;;14.21;100.00
74524;BME280;63074;44.696;10.358;2023-05-01T05:22:15;99834.06;;;14.25;100.00
74524;BME280;63074;44.696;10.358;2023-05-01T05:24:42;99835.66;;;14.21;100.00
74524;BME280;63074;44.696;10.358;2023-05-01T05:27:08;99837.56;;;14.26;100.00
74524;BME280;63074;44.696;10.358;2023-05-01T05:29:34;99841.03;;;14.11;100.00
74524;BME280;63074;44.696;10.358;2023-05-01T05:32:01;99844.47;;;13.96;100.00
74524;BME280;63074;44.696;10.358;2023-05-01T05:34:27;99852.81;;;13.95;100.00
74524;BME280;63074;44.696;10.358;2023-05-01T05:36:53;99844.03;;;13.67;100.00
74524;BME280;63074;44.696;10.358;2023-05-01T05:39:21;99847.56;;;13.73;100.00
74524;BME280;63074;44.696;10.358;2023-05-01T05:41:48;99852.31;;;13.98;100.00
74524;BME280;63074;44.696;10.358;2023-05-01T05:44:15;99854.47;;;13.96;100.00
74524;BME280;63074;44.696;10.358;2023-05-01T05:46:41;99859.00;;;13.90;100.00
74524;BME280;63074;44.696;10.358;2023-05-01T05:49:07;99854.22;;;14.02;100.00
74524;BME280;63074;44.696;10.358;2023-05-01T05:51:33;99860.59;;;13.86;100.00
74524;BME280;63074;44.696;10.358;2023-05-01T05:57:41;99862.13;;;14.14;100.00
74524;BME280;63074;44.696;10.358;2023-05-01T06:00:08;99860.25;;;14.19;100.00
74524;BME280;63074;44.696;10.358;2023-05-01T06:02:35;99861.88;;;14.20;100.00
74524;BME280;63074;44.696;10.358;2023-05-01T06:05:02;99864.84;;;14.14;100.00
74524;BME280;63074;44.696;10.358;2023-05-01T06:07:28;99866.94;;;14.07;100.00
74524;BME280;63074;44.696;10.358;2023-05-01T06:09:55;99870.16;;;13.99;100.00
74524;BME280;63074;44.696;10.358;2023-05-01T06:12:27;99872.41;;;13.70;100.00
74524;BME280;63074;44.696;10.358;2023-05-01T06:14:54;99880.63;;;13.90;100.00
74524;BME280;63074;44.696;10.358;2023-05-01T06:17:21;99877.13;;;13.95;100.00
74524;BME280;63074;44.696;10.358;2023-05-01T06:19:47;99871.56;;;14.11;100.00
74524;BME280;63074;44.696;10.358;2023-05-01T06:22:13;99884.25;;;14.06;100.00
74524;BME280;63074;44.696;10.358;2023-05-01T06:24:39;99871.88;;;14.20;100.00
74524;BME280;63074;44.696;10.358;2023-05-01T06:27:05;99878.91;;;14.21;100.00
74524;BME280;63074;44.696;10.358;2023-05-01T06:29:32;99884.31;;;14.21;100.00
74524;BME280;63074;44.696;10.358;2023-05-01T06:31:58;99876.72;;;14.18;100.00
74524;BME280;63074;44.696;10.358;2023-05-01T06:34:24;99882.97;;;14.24;100.00
74524;BME280;63074;44.696;10.358;2023-05-01T06:36:50;99880.50;;;14.17;100.00
74524;BME280;63074;44.696;10.358;2023-05-01T06:39:17;99890.06;;;13.88;100.00
74524;BME280;63074;44.696;10.358;2023-05-01T06:41:45;99896.56;;;13.92;100.00
74524;BME280;63074;44.696;10.358;2023-05-01T06:44:12;99894.13;;;13.90;100.00
74524;BME280;63074;44.696;10.358;2023-05-01T06:46:38;99900.69;;;13.99;100.00
74524;BME280;63074;44.696;10.358;2023-05-01T06:49:04;99899.59;;;14.00;100.00
74524;BME280;63074;44.696;10.358;2023-05-01T06:51:31;99895.06;;;14.16;100.00
74524;BME280;63074;44.696;10.358;2023-05-01T06:53:58;99897.06;;;14.31;100.00
74524;BME280;63074;44.696;10.358;2023-05-01T06:56:24;99905.13;;;14.26;100.00
74524;BME280;63074;44.696;10.358;2023-05-01T06:58:50;99904.66;;;14.39;100.00
74524;BME280;63074;44.696;10.358;2023-05-01T07:01:16;99900.41;;;14.43;100.00
74524;BME280;63074;44.696;10.358;2023-05-01T07:03:43;99896.31;;;14.40;100.00
74524;BME280;63074;44.696;10.358;2023-05-01T07:06:09;99903.09;;;14.43;100.00
74524;BME280;63074;44.696;10.358;2023-05-01T07:08:35;99906.31;;;14.45;100.00
74524;BME280;63074;44.696;10.358;2023-05-01T07:11:02;99897.91;;;14.36;100.00
74524;BME280;63074;44.696;10.358;2023-05-01T07:13:28;99899.06;;;14.50;100.00
74524;BME280;63074;44.696;10.358;2023-05-01T07:15:54;99903.41;;;14.57;100.00
74524;BME280;63074;44.696;10.358;2023-05-01T07:18:20;99906.66;;;14.59;100.00
74524;BME280;63074;44.696;10.358;2023-05-01T07:20:47;99899.66;;;14.73;100.00
74524;BME280;63074;44.696;10.358;2023-05-01T07:23:14;99908.59;;;14.73;100.00
74524;BME280;63074;44.696;10.358;2023-05-01T07:25:42;99905.34;;;14.76;100.00
74524;BME280;63074;44.696;10.358;2023-05-01T07:28:10;99902.38;;;14.68;100.00
74524;BME280;63074;44.696;10.358;2023-05-01T07:30:36;99902.16;;;14.90;100.00
74524;BME280;63074;44.696;10.358;2023-05-01T07:33:03;99902.16;;;14.90;100.00
74524;BME280;63074;44.696;10.358;2023-05-01T07:35:30;99902.44;;;14.88;100.00
74524;BME280;63074;44.696;10.358;2023-05-01T07:37:57;99907.84;;;14.93;100.00
74524;BME280;63074;44.696;10.358;2023-05-01T07:40:23;99903.53;;;14.97;100.00
74524;BME280;63074;44.696;10.358;2023-05-01T07:42:50;99904.88;;;15.05;100.00
74524;BME280;63074;44.696;10.358;2023-05-01T07:45:16;99903.00;;;15.10;100.00
74524;BME280;63074;44.696;10.358;2023-05-01T07:47:42;99905.16;;;15.13;100.00
74524;BME280;63074;44.696;10.358;2023-05-01T07:50:10;99904.34;;;15.13;100.00
74524;BME280;63074;44.696;10.358;2023-05-01T07:52:37;99905.72;;;15.20;100.00
74524;BME280;63074;44.696;10.358;2023-05-01T07:55:03;99906.53;;;15.31;100.00
74524;BME280;63074;44.696;10.358;2023-05-01T07:57:30;99909.78;;;15.38;100.00
74524;BME280;63074;44.696;10.358;2023-05-01T07:59:58;99909.00;;;15.43;100.00
74524;BME280;63074;44.696;10.358;2023-05-01T08:02:24;99901.72;;;15.59;100.00
74524;BME280;63074;44.696;10.358;2023-05-01T08:04:50;99902.75;;;15.42;100.00
74524;BME280;63074;44.696;10.358;2023-05-01T08:07:17;99901.41;;;15.35;100.00
74524;BME280;63074;44.696;10.358;2023-05-01T08:09:44;99891.41;;;15.50;100.00
74524;BME280;63074;44.696;10.358;2023-05-01T08:12:10;99900.06;;;15.42;100.00
74524;BME280;63074;44.696;10.358;2023-05-01T08:14:37;99895.44;;;15.38;100.00
74524;BME280;63074;44.696;10.358;2023-05-01T08:17:03;99891.66;;;15.39;100.00
74524;BME280;63074;44.696;10.358;2023-05-01T08:19:29;99893.03;;;15.51;100.00
74524;BME280;63074;44.696;10.358;2023-05-01T08:21:55;99896.53;;;15.47;100.00
74524;BME280;63074;44.696;10.358;2023-05-01T08:24:22;99904.41;;;15.69;100.00
74524;BME280;63074;44.696;10.358;2023-05-01T08:26:48;99900.38;;;15.56;100.00
74524;BME280;63074;44.696;10.358;2023-05-01T08:29:14;99896.56;;;15.57;100.00
74524;BME280;63074;44.696;10.358;2023-05-01T08:31:40;99901.69;;;15.69;100.00
74524;BME280;63074;44.696;10.358;2023-05-01T08:34:08;99905.75;;;15.76;100.00
74524;BME280;63074;44.696;10.358;2023-05-01T08:36:34;99908.75;;;15.75;100.00
74524;BME280;63074;44.696;10.358;2023-05-01T08:39:00;99910.63;;;15.74;100.00
74524;BME280;63074;44.696;10.358;2023-05-01T08:41:27;99918.72;;;15.90;100.00
74524;BME280;63074;44.696;10.358;2023-05-01T08:43:56;99919.53;;;15.90;100.00
74524;BME280;63074;44.696;10.358;2023-05-01T08:46:52;99913.06;;;15.76;100.00
74524;BME280;63074;44.696;10.358;2023-05-01T08:49:23;99913.88;;;15.61;100.00
74524;BME280;63074;44.696;10.358;2023-05-01T08:51:51;99911.44;;;15.70;100.00
74524;BME280;63074;44.696;10.358;2023-05-01T08:54:19;99907.63;;;15.50;100.00
74524;BME280;63074;44.696;10.358;2023-05-01T08:56:51;99905.75;;;15.46;100.00
74524;BME280;63074;44.696;10.358;2023-05-01T08:59:18;99912.25;;;15.50;100.00
74524;BME280;63074;44.696;10.358;2023-05-01T09:01:45;99914.69;;;15.62;100.00
74524;BME280;63074;44.696;10.358;2023-05-01T09:04:13;99909.81;;;15.64;100.00
74524;BME280;63074;44.696;10.358;2023-05-01T09:06:39;99913.59;;;15.63;100.00
74524;BME280;63074;44.696;10.358;2023-05-01T09:09:05;99910.09;;;15.72;100.00
74524;BME280;63074;44.696;10.358;2023-05-01T09:11:32;99908.19;;;15.73;100.00
74524;BME280;63074;44.696;10.358;2023-05-01T09:14:00;99908.16;;;15.88;100.00
74524;BME280;63074;44.696;10.358;2023-05-01T09:16:26;99903.25;;;16.05;100.00
74524;BME280;63074;44.696;10.358;2023-05-01T09:18:54;99911.13;;;16.12;100.00
74524;BME280;63074;44.696;10.358;2023-05-01T09:21:21;99903.72;;;16.28;100.00
74524;BME280;63074;44.696;10.358;2023-05-01T09:23:52;99910.16;;;16.52;100.00
74524;BME280;63074;44.696;10.358;2023-05-01T09:26:18;99906.13;;;16.44;100.00
74524;BME280;63074;44.696;10.358;2023-05-01T09:28:46;99907.94;;;16.69;100.00
74524;BME280;63074;44.696;10.358;2023-05-01T09:31:29;99906.03;;;16.70;100.00
74524;BME280;63074;44.696;10.358;2023-05-01T09:33:59;99898.28;;;16.97;100.00
74524;BME280;63074;44.696;10.358;2023-05-01T09:36:27;99891.94;;;16.73;100.00
74524;BME280;63074;44.696;10.358;2023-05-01T09:38:54;99891.94;;;16.73;100.00
74524;BME280;63074;44.696;10.358;2023-05-01T09:41:22;99893.22;;;16.80;100.00
74524;BME280;63074;44.696;10.358;2023-05-01T09:44:16;99880.75;;;17.18;100.00
74524;BME280;63074;44.696;10.358;2023-05-01T09:46:44;99886.38;;;17.32;100.00
74524;BME280;63074;44.696;10.358;2023-05-01T09:49:10;99882.78;;;17.37;100.00
74524;BME280;63074;44.696;10.358;2023-05-01T09:51:36;99868.41;;;17.70;100.00
74524;BME280;63074;44.696;10.358;2023-05-01T09:54:03;99880.56;;;17.78;100.00
74524;BME280;63074;44.696;10.358;2023-05-01T09:56:33;99880.28;;;17.45;100.00
74524;BME280;63074;44.696;10.358;2023-05-01T09:59:18;99869.84;;;17.58;100.00
74524;BME280;63074;44.696;10.358;2023-05-01T10:01:46;99860.66;;;17.19;100.00
74524;BME280;63074;44.696;10.358;2023-05-01T10:04:14;99863.50;;;17.38;100.00
74524;BME280;63074;44.696;10.358;2023-05-01T10:06:40;99869.72;;;17.39;100.00
74524;BME280;63074;44.696;10.358;2023-05-01T10:09:07;99864.13;;;17.59;100.00
74524;BME280;63074;44.696;10.358;2023-05-01T10:11:48;99861.75;;;17.18;100.00
74524;BME280;63074;44.696;10.358;2023-05-01T10:14:15;99876.03;;;17.63;100.00
74524;BME280;63074;44.696;10.358;2023-05-01T10:16:41;99882.84;;;17.66;100.00
74524;BME280;63074;44.696;10.358;2023-05-01T10:19:08;99894.47;;;17.71;100.00
74524;BME280;63074;44.696;10.358;2023-05-01T10:21:35;99883.00;;;17.79;100.00
74524;BME280;63074;44.696;10.358;2023-05-01T10:24:02;99879.75;;;17.77;100.00
74524;BME280;63074;44.696;10.358;2023-05-01T10:26:29;99880.81;;;17.47;100.00
74524;BME280;63074;44.696;10.358;2023-05-01T10:28:56;99878.00;;;17.58;100.00
74524;BME280;63074;44.696;10.358;2023-05-01T10:31:24;99871.63;;;17.72;100.00
74524;BME280;63074;44.696;10.358;2023-05-01T10:33:55;99877.63;;;17.69;100.00
74524;BME280;63074;44.696;10.358;2023-05-01T10:36:46;99883.56;;;17.76;100.00
74524;BME280;63074;44.696;10.358;2023-05-01T10:39:33;99879.13;;;17.85;100.00
74524;BME280;63074;44.696;10.358;2023-05-01T10:42:08;99890.53;;;17.87;100.00
74524;BME280;63074;44.696;10.358;2023-05-01T10:44:41;99885.13;;;17.82;100.00
74524;BME280;63074;44.696;10.358;2023-05-01T10:50:07;99887.81;;;17.53;100.00
74524;BME280;63074;44.696;10.358;2023-05-01T10:55:38;99894.28;;;17.29;100.00
74524;BME280;63074;44.696;10.358;2023-05-01T10:58:04;99900.59;;;17.19;100.00
74524;BME280;63074;44.696;10.358;2023-05-01T11:00:31;99903.16;;;17.34;100.00
74524;BME280;63074;44.696;10.358;2023-05-01T11:08:30;99872.81;;;17.61;100.00
74524;BME280;63074;44.696;10.358;2023-05-01T11:10:56;99867.22;;;17.47;100.00
74524;BME280;63074;44.696;10.358;2023-05-01T11:16:46;99849.41;;;17.65;100.00
74524;BME280;63074;44.696;10.358;2023-05-01T11:21:49;99848.13;;;17.58;100.00
74524;BME280;63074;44.696;10.358;2023-05-01T11:24:16;99852.53;;;17.48;100.00
74524;BME280;63074;44.696;10.358;2023-05-01T11:26:44;99846.38;;;17.72;100.00
74524;BME280;63074;44.696;10.358;2023-05-01T11:29:12;99855.72;;;17.61;100.00
74524;BME280;63074;44.696;10.358;2023-05-01T11:31:39;99847.75;;;17.64;100.00
74524;BME280;63074;44.696;10.358;2023-05-01T11:34:06;99864.19;;;17.54;100.00
74524;BME280;63074;44.696;10.358;2023-05-01T11:36:50;99855.59;;;17.42;100.00
74524;BME280;63074;44.696;10.358;2023-05-01T11:39:17;99849.31;;;17.46;100.00
74524;BME280;63074;44.696;10.358;2023-05-01T11:41:43;99847.16;;;17.43;100.00
74524;BME280;63074;44.696;10.358;2023-05-01T11:44:17;99846.81;;;17.50;100.00
74524;BME280;63074;44.696;10.358;2023-05-01T11:46:43;99850.56;;;17.59;100.00
74524;BME280;63074;44.696;10.358;2023-05-01T11:49:10;99850.03;;;17.57;100.00
74524;BME280;63074;44.696;10.358;2023-05-01T11:51:37;99830.34;;;17.70;100.00
74524;BME280;63074;44.696;10.358;2023-05-01T11:54:05;99815.09;;;17.74;100.00
74524;BME280;63074;44.696;10.358;2023-05-01T11:56:32;99823.91;;;17.61;100.00
74524;BME280;63074;44.696;10.358;2023-05-01T12:01:40;99818.00;;;17.54;100.00
74524;BME280;63074;44.696;10.358;2023-05-01T12:04:09;99823.44;;;17.54;100.00
74524;BME280;63074;44.696;10.358;2023-05-01T12:06:37;99836.28;;;17.43;100.00
74524;BME280;63074;44.696;10.358;2023-05-01T12:09:05;99837.88;;;17.49;100.00
74524;BME280;63074;44.696;10.358;2023-05-01T12:11:33;99840.13;;;17.37;100.00
74524;BME280;63074;44.696;10.358;2023-05-01T12:14:00;99835.63;;;16.94;100.00
74524;BME280;63074;44.696;10.358;2023-05-01T12:16:27;99837.84;;;16.81;100.00
74524;BME280;63074;44.696;10.358;2023-05-01T12:18:55;99832.16;;;16.83;100.00
74524;BME280;63074;44.696;10.358;2023-05-01T14:20:53;99803.38;;;14.77;100.00
74524;BME280;63074;44.696;10.358;2023-05-01T14:23:19;99795.25;;;14.62;100.00
74524;BME280;63074;44.696;10.358;2023-05-01T14:25:48;99806.91;;;14.82;100.00
74524;BME280;63074;44.696;10.358;2023-05-01T14:28:21;99797.16;;;14.66;100.00
74524;BME280;63074;44.696;10.358;2023-05-01T14:30:52;99800.97;;;14.65;100.00
74524;BME280;63074;44.696;10.358;2023-05-01T14:33:26;99804.47;;;14.66;100.00
74524;BME280;63074;44.696;10.358;2023-05-01T14:36:14;99805.03;;;14.88;100.00
74524;BME280;63074;44.696;10.358;2023-05-01T14:38:51;99805.53;;;14.75;100.00
74524;BME280;63074;44.696;10.358;2023-05-01T14:41:27;99796.06;;;14.62;100.00
74524;BME280;63074;44.696;10.358;2023-05-01T14:43:57;99807.19;;;14.71;100.00
74524;BME280;63074;44.696;10.358;2023-05-01T14:46:29;99805.03;;;14.83;100.00
74524;BME280;63074;44.696;10.358;2023-05-01T14:48:56;99804.16;;;14.52;100.00
74524;BME280;63074;44.696;10.358;2023-05-01T14:51:23;99810.91;;;14.49;100.00
74524;BME280;63074;44.696;10.358;2023-05-01T14:53:57;99808.19;;;14.44;100.00
74524;BME280;63074;44.696;10.358;2023-05-01T14:56:57;99818.06;;;14.18;100.00
74524;BME280;63074;44.696;10.358;2023-05-01T14:59:35;99808.88;;;14.09;100.00
74524;BME280;63074;44.696;10.358;2023-05-01T15:02:13;99806.47;;;14.13;100.00
74524;BME280;63074;44.696;10.358;2023-05-01T15:04:52;99812.03;;;13.91;100.00
74524;BME280;63074;44.696;10.358;2023-05-01T15:07:43;99814.06;;;14.26;100.00
74524;BME280;63074;44.696;10.358;2023-05-01T15:10:10;99802.06;;;13.97;100.00
74524;BME280;63074;44.696;10.358;2023-05-01T15:12:49;99803.50;;;14.14;100.00
74524;BME280;63074;44.696;10.358;2023-05-01T15:15:22;99795.16;;;14.26;100.00
74524;BME280;63074;44.696;10.358;2023-05-01T15:17:49;99805.47;;;14.44;100.00
74524;BME280;63074;44.696;10.358;2023-05-01T15:20:23;99804.16;;;14.42;100.00